ADDS METAR Data INFO
IDs: Format: Raw Decoded Include TAF

Data at: 1001 UTC 12 Dec 2017

KOKC 120952Z 35012KT 10SM CLR 04/M02 A3038 RMK AO2 SLP286 T00391022
KOKC 120852Z 35014KT 10SM CLR 04/M02 A3038 RMK AO2 SLP286 T00391022 51017
KOKC 120752Z 35012KT 10SM CLR 05/M03 A3037 RMK AO2 PK WND 36027/0707 SLP281 T00501028
KOKC 120652Z 36018G25KT 10SM CLR 06/M03 A3035 RMK AO2 PK WND 36026/0607 SLP275 T00611028
KOKC 120552Z 36017G23KT 10SM CLR 07/M03 A3032 RMK AO2 SLP266 T00721033 10117 20067 402111006 51027
KOKC 120452Z 01016G28KT 10SM CLR 08/M04 A3031 RMK AO2 PK WND 01028/0443 SLP260 T00831044
KOKC 120352Z 35013G20KT 10SM CLR 09/M07 A3028 RMK AO2 SLP250 T00941067
KOKC 120252Z 34008KT 10SM CLR 08/M07 A3024 RMK AO2 SLP242 T00781067 53030
KOKC 120152Z 33007KT 10SM CLR 08/M07 A3020 RMK AO2 SLP229 T00831067
KOKC 120052Z 29005KT 10SM FEW250 11/M08 A3017 RMK AO2 SLP219 T01111078
KOKC 112352Z 27003KT 10SM FEW250 12/M08 A3015 RMK AO2 SLP211 T01171083 10211 20117 53011
KOKC 112252Z 34007KT 10SM FEW250 14/M08 A3014 RMK AO2 SLP208 T01441083
KOKC 112152Z 34013KT 10SM FEW250 17/M10 A3012 RMK AO2 SLP199 T01721100
KOKC 112052Z 35013KT 10SM FEW250 18/M09 A3011 RMK AO2 SLP197 T01781094 55005
KOKC 111952Z 32012KT 10SM FEW250 18/M10 A3011 RMK AO2 SLP195 T01781100
KOKC 111852Z 33019KT 10SM CLR 18/M10 A3013 RMK AO2 SLP200 T01831100
KOKC 111752Z 28008KT 10SM FEW250 19/M10 A3013 RMK AO2 SLP201 T01941100 10194 20028 58016
KOKC 111652Z 32010KT 10SM FEW250 17/M09 A3018 RMK AO2 SLP217 T01671094
KOKC 111552Z 30005KT 10SM FEW250 13/M10 A3019 RMK AO2 SLP222 T01331100
KOKC 111452Z 00000KT 10SM FEW250 07/M05 A3018 RMK AO2 SLP221 T00721050 55003
KOKC 111352Z 00000KT 10SM FEW250 03/M09 A3017 RMK AO2 SLP219 T00331089
KOKC 111252Z 00000KT 10SM CLR 04/M10 A3018 RMK AO2 SLP221 T00441100
KOKC 111152Z 00000KT 10SM CLR 03/M09 A3019 RMK AO2 SLP224 T00331089 10056 21006 58009
KOKC 111052Z 00000KT 10SM CLR 02/M08 A3020 RMK AO2 SLP228 T00221083
KOKC 110952Z 22004KT 10SM CLR 03/M08 A3022 RMK AO2 SLP232 T00281083
KOKC 110852Z 21005KT 10SM CLR 03/M09 A3022 RMK AO2 SLP230 T00331094 56014
KOKC 110752Z 00000KT 10SM CLR 03/M09 A3022 RMK AO2 SLP232 T00281089
KOKC 110652Z 00000KT 10SM CLR 05/M09 A3024 RMK AO2 SLP236 T00501094
KOKC 110552Z 00000KT 10SM CLR 05/M09 A3026 RMK AO2 SLP246 T00501089 10133 20028 402001033 58003
KOKC 110452Z 00000KT 10SM CLR 05/M09 A3027 RMK AO2 SLP251 T00501089
KOKC 110352Z 22003KT 10SM CLR 04/M09 A3026 RMK AO2 SLP251 T00441089
KOKC 110252Z 00000KT 10SM CLR 09/M10 A3027 RMK AO2 SLP252 T00941100 51003
KOKC 110152Z 30003KT 10SM CLR 12/M11 A3026 RMK AO2 SLP253 T01171106
KOKC 110052Z 31006KT 10SM CLR 12/M10 A3027 RMK AO2 SLP254 T01171100
KOKC 102352Z 30007KT 10SM FEW250 13/M11 A3026 RMK AO2 SLP251 T01331106 10200 20128 50003
KOKC 102252Z 31006KT 10SM FEW250 16/M11 A3026 RMK AO2 SLP250 T01611106